sensor_id;sensor_type;location;lat;lon;timestamp;temperature;humidity
65231;DHT22;51813;40.666;16.602;2024-02-26T00:01:27;16.20;62.20
65231;DHT22;51813;40.666;16.602;2024-02-26T00:03:52;16.10;62.30
65231;DHT22;51813;40.666;16.602;2024-02-26T00:06:19;16.10;62.30
65231;DHT22;51813;40.666;16.602;2024-02-26T00:08:45;16.10;63.20
65231;DHT22;51813;40.666;16.602;2024-02-26T00:11:11;16.10;62.60
65231;DHT22;51813;40.666;16.602;2024-02-26T00:13:36;16.10;62.60
65231;DHT22;51813;40.666;16.602;2024-02-26T00:16:06;16.00;62.90
65231;DHT22;51813;40.666;16.602;2024-02-26T00:18:33;16.10;62.80
65231;DHT22;51813;40.666;16.602;2024-02-26T00:20:58;16.00;62.80
65231;DHT22;51813;40.666;16.602;2024-02-26T00:23:24;16.00;62.90
65231;DHT22;51813;40.666;16.602;2024-02-26T00:25:50;16.10;62.70
65231;DHT22;51813;40.666;16.602;2024-02-26T00:28:15;16.00;62.90
65231;DHT22;51813;40.666;16.602;2024-02-26T00:30:41;15.80;63.10
65231;DHT22;51813;40.666;16.602;2024-02-26T00:33:07;15.80;63.60
65231;DHT22;51813;40.666;16.602;2024-02-26T00:35:32;15.90;63.60
65231;DHT22;51813;40.666;16.602;2024-02-26T00:37:58;16.00;62.80
65231;DHT22;51813;40.666;16.602;2024-02-26T00:40:24;15.90;62.90
65231;DHT22;51813;40.666;16.602;2024-02-26T00:42:49;15.80;63.30
65231;DHT22;51813;40.666;16.602;2024-02-26T00:45:15;15.90;63.00
65231;DHT22;51813;40.666;16.602;2024-02-26T00:47:42;15.90;63.00
65231;DHT22;51813;40.666;16.602;2024-02-26T00:50:08;15.80;63.20
65231;DHT22;51813;40.666;16.602;2024-02-26T00:52:34;15.90;63.20
65231;DHT22;51813;40.666;16.602;2024-02-26T00:55:00;15.80;63.30
65231;DHT22;51813;40.666;16.602;2024-02-26T00:57:26;15.70;63.50
65231;DHT22;51813;40.666;16.602;2024-02-26T00:59:51;15.70;63.60
65231;DHT22;51813;40.666;16.602;2024-02-26T01:02:17;15.90;63.40
65231;DHT22;51813;40.666;16.602;2024-02-26T01:04:42;16.10;62.70
65231;DHT22;51813;40.666;16.602;2024-02-26T01:07:09;16.10;62.50
65231;DHT22;51813;40.666;16.602;2024-02-26T01:09:34;16.10;62.20
65231;DHT22;51813;40.666;16.602;2024-02-26T01:12:00;15.90;62.90
65231;DHT22;51813;40.666;16.602;2024-02-26T01:14:28;15.80;63.10
65231;DHT22;51813;40.666;16.602;2024-02-26T01:16:53;15.80;63.30
65231;DHT22;51813;40.666;16.602;2024-02-26T01:19:19;15.90;63.30
65231;DHT22;51813;40.666;16.602;2024-02-26T01:21:45;16.10;62.70
65231;DHT22;51813;40.666;16.602;2024-02-26T01:24:10;16.20;62.20
65231;DHT22;51813;40.666;16.602;2024-02-26T01:26:36;16.20;62.20
65231;DHT22;51813;40.666;16.602;2024-02-26T01:29:02;16.20;62.10
65231;DHT22;51813;40.666;16.602;2024-02-26T01:31:27;16.20;62.00
65231;DHT22;51813;40.666;16.602;2024-02-26T01:33:53;16.10;61.90
65231;DHT22;51813;40.666;16.602;2024-02-26T01:36:19;16.00;62.60
65231;DHT22;51813;40.666;16.602;2024-02-26T01:38:45;15.90;62.40
65231;DHT22;51813;40.666;16.602;2024-02-26T01:41:11;15.90;62.80
65231;DHT22;51813;40.666;16.602;2024-02-26T01:43:36;15.80;62.90
65231;DHT22;51813;40.666;16.602;2024-02-26T01:46:03;15.80;63.00
65231;DHT22;51813;40.666;16.602;2024-02-26T01:48:29;15.80;62.80
65231;DHT22;51813;40.666;16.602;2024-02-26T01:50:54;15.80;63.00
65231;DHT22;51813;40.666;16.602;2024-02-26T01:53:21;15.80;63.20
65231;DHT22;51813;40.666;16.602;2024-02-26T01:55:46;16.00;62.80
65231;DHT22;51813;40.666;16.602;2024-02-26T01:58:13;16.00;62.50
65231;DHT22;51813;40.666;16.602;2024-02-26T02:00:39;16.00;62.20
65231;DHT22;51813;40.666;16.602;2024-02-26T02:03:05;16.00;62.50
65231;DHT22;51813;40.666;16.602;2024-02-26T02:05:31;15.90;62.40
65231;DHT22;51813;40.666;16.602;2024-02-26T02:07:58;15.80;62.70
65231;DHT22;51813;40.666;16.602;2024-02-26T02:10:26;15.80;62.80
65231;DHT22;51813;40.666;16.602;2024-02-26T02:12:52;15.90;62.70
65231;DHT22;51813;40.666;16.602;2024-02-26T02:15:18;16.00;62.40
65231;DHT22;51813;40.666;16.602;2024-02-26T02:17:44;15.80;62.50
65231;DHT22;51813;40.666;16.602;2024-02-26T02:20:15;15.80;62.90
65231;DHT22;51813;40.666;16.602;2024-02-26T02:22:41;15.70;63.20
65231;DHT22;51813;40.666;16.602;2024-02-26T02:25:07;15.80;63.20
65231;DHT22;51813;40.666;16.602;2024-02-26T02:27:32;15.70;63.00
65231;DHT22;51813;40.666;16.602;2024-02-26T02:29:59;15.70;63.20
65231;DHT22;51813;40.666;16.602;2024-02-26T02:32:25;15.70;63.40
65231;DHT22;51813;40.666;16.602;2024-02-26T02:34:52;15.70;63.10
65231;DHT22;51813;40.666;16.602;2024-02-26T02:37:17;15.80;63.20
65231;DHT22;51813;40.666;16.602;2024-02-26T02:39:43;15.80;63.40
65231;DHT22;51813;40.666;16.602;2024-02-26T02:42:09;16.00;62.60
65231;DHT22;51813;40.666;16.602;2024-02-26T02:44:36;15.90;62.50
65231;DHT22;51813;40.666;16.602;2024-02-26T02:47:01;15.80;62.60
65231;DHT22;51813;40.666;16.602;2024-02-26T02:49:27;15.80;62.80
65231;DHT22;51813;40.666;16.602;2024-02-26T02:51:53;15.90;62.70
65231;DHT22;51813;40.666;16.602;2024-02-26T02:54:20;15.80;63.40
65231;DHT22;51813;40.666;16.602;2024-02-26T02:56:45;15.80;63.20
65231;DHT22;51813;40.666;16.602;2024-02-26T02:59:11;15.80;62.80
65231;DHT22;51813;40.666;16.602;2024-02-26T03:01:37;15.90;63.20
65231;DHT22;51813;40.666;16.602;2024-02-26T03:04:02;15.80;62.70
65231;DHT22;51813;40.666;16.602;2024-02-26T03:06:28;15.70;62.90
65231;DHT22;51813;40.666;16.602;2024-02-26T03:08:54;15.70;63.10
65231;DHT22;51813;40.666;16.602;2024-02-26T03:11:20;15.70;63.30
65231;DHT22;51813;40.666;16.602;2024-02-26T03:13:46;15.60;63.50
65231;DHT22;51813;40.666;16.602;2024-02-26T03:16:11;15.80;63.10
65231;DHT22;51813;40.666;16.602;2024-02-26T03:18:40;15.70;63.30
65231;DHT22;51813;40.666;16.602;2024-02-26T03:21:06;15.60;63.30
65231;DHT22;51813;40.666;16.602;2024-02-26T03:23:32;15.60;63.10
65231;DHT22;51813;40.666;16.602;2024-02-26T03:26:03;15.60;63.30
65231;DHT22;51813;40.666;16.602;2024-02-26T03:28:29;15.60;63.50
65231;DHT22;51813;40.666;16.602;2024-02-26T03:30:55;15.80;63.00
65231;DHT22;51813;40.666;16.602;2024-02-26T03:33:20;15.80;62.80
65231;DHT22;51813;40.666;16.602;2024-02-26T03:35:46;15.80;62.90
65231;DHT22;51813;40.666;16.602;2024-02-26T03:38:13;15.80;62.60
65231;DHT22;51813;40.666;16.602;2024-02-26T03:40:38;15.60;62.80
65231;DHT22;51813;40.666;16.602;2024-02-26T03:43:04;15.80;63.10
65231;DHT22;51813;40.666;16.602;2024-02-26T03:45:32;15.70;62.90
65231;DHT22;51813;40.666;16.602;2024-02-26T03:47:58;15.60;62.80
65231;DHT22;51813;40.666;16.602;2024-02-26T03:50:24;15.70;62.90
65231;DHT22;51813;40.666;16.602;2024-02-26T03:52:50;15.70;62.70
65231;DHT22;51813;40.666;16.602;2024-02-26T03:55:15;15.80;62.50
65231;DHT22;51813;40.666;16.602;2024-02-26T03:57:43;15.70;62.90
65231;DHT22;51813;40.666;16.602;2024-02-26T04:00:09;15.70;62.90
65231;DHT22;51813;40.666;16.602;2024-02-26T04:02:35;15.70;62.90
65231;DHT22;51813;40.666;16.602;2024-02-26T04:05:01;15.80;62.80
65231;DHT22;51813;40.666;16.602;2024-02-26T04:07:26;15.70;62.90
65231;DHT22;51813;40.666;16.602;2024-02-26T04:09:52;15.70;62.80
65231;DHT22;51813;40.666;16.602;2024-02-26T04:12:18;15.70;62.90
65231;DHT22;51813;40.666;16.602;2024-02-26T04:14:44;15.90;62.50
65231;DHT22;51813;40.666;16.602;2024-02-26T04:17:10;16.00;61.90
65231;DHT22;51813;40.666;16.602;2024-02-26T04:19:36;16.10;61.60
65231;DHT22;51813;40.666;16.602;2024-02-26T04:22:02;16.20;61.30
65231;DHT22;51813;40.666;16.602;2024-02-26T04:24:28;16.20;61.00
65231;DHT22;51813;40.666;16.602;2024-02-26T04:26:53;16.20;61.00
65231;DHT22;51813;40.666;16.602;2024-02-26T04:29:19;16.30;61.00
65231;DHT22;51813;40.666;16.602;2024-02-26T04:31:44;16.20;61.00
65231;DHT22;51813;40.666;16.602;2024-02-26T04:34:12;16.20;60.90
65231;DHT22;51813;40.666;16.602;2024-02-26T04:36:37;15.90;61.70
65231;DHT22;51813;40.666;16.602;2024-02-26T04:39:03;15.70;62.90
65231;DHT22;51813;40.666;16.602;2024-02-26T04:41:29;15.70;62.40
65231;DHT22;51813;40.666;16.602;2024-02-26T04:43:54;15.70;62.50
65231;DHT22;51813;40.666;16.602;2024-02-26T04:46:20;15.70;62.70
65231;DHT22;51813;40.666;16.602;2024-02-26T04:48:47;15.80;62.20
65231;DHT22;51813;40.666;16.602;2024-02-26T04:51:13;15.80;62.50
65231;DHT22;51813;40.666;16.602;2024-02-26T04:53:39;15.80;62.10
65231;DHT22;51813;40.666;16.602;2024-02-26T04:56:04;15.80;62.10
65231;DHT22;51813;40.666;16.602;2024-02-26T04:58:30;15.80;62.20
65231;DHT22;51813;40.666;16.602;2024-02-26T05:00:56;15.80;61.70
65231;DHT22;51813;40.666;16.602;2024-02-26T05:03:22;15.80;62.30
65231;DHT22;51813;40.666;16.602;2024-02-26T05:05:47;15.70;62.30
65231;DHT22;51813;40.666;16.602;2024-02-26T05:08:13;15.90;62.20
65231;DHT22;51813;40.666;16.602;2024-02-26T05:10:39;15.80;62.10
65231;DHT22;51813;40.666;16.602;2024-02-26T05:13:06;15.90;62.20
65231;DHT22;51813;40.666;16.602;2024-02-26T05:15:32;16.00;61.70
65231;DHT22;51813;40.666;16.602;2024-02-26T05:17:58;16.10;61.60
65231;DHT22;51813;40.666;16.602;2024-02-26T05:20:24;16.20;61.20
65231;DHT22;51813;40.666;16.602;2024-02-26T05:22:50;16.20;61.10
65231;DHT22;51813;40.666;16.602;2024-02-26T05:25:17;16.30;61.00
65231;DHT22;51813;40.666;16.602;2024-02-26T05:27:44;16.10;60.50
65231;DHT22;51813;40.666;16.602;2024-02-26T05:30:10;15.90;61.40
65231;DHT22;51813;40.666;16.602;2024-02-26T05:32:36;15.90;61.90
65231;DHT22;51813;40.666;16.602;2024-02-26T05:35:02;16.00;61.60
65231;DHT22;51813;40.666;16.602;2024-02-26T05:37:29;16.20;61.10
65231;DHT22;51813;40.666;16.602;2024-02-26T05:39:55;16.20;60.90
65231;DHT22;51813;40.666;16.602;2024-02-26T05:42:21;16.20;60.80
65231;DHT22;51813;40.666;16.602;2024-02-26T05:44:46;16.20;60.60
65231;DHT22;51813;40.666;16.602;2024-02-26T05:47:12;16.20;60.90
65231;DHT22;51813;40.666;16.602;2024-02-26T05:49:39;16.20;60.80
65231;DHT22;51813;40.666;16.602;2024-02-26T05:52:05;16.10;60.80
65231;DHT22;51813;40.666;16.602;2024-02-26T05:54:31;16.10;61.20
65231;DHT22;51813;40.666;16.602;2024-02-26T05:56:57;16.10;61.40
65231;DHT22;51813;40.666;16.602;2024-02-26T05:59:23;15.90;61.20
65231;DHT22;51813;40.666;16.602;2024-02-26T06:01:48;16.00;61.80
65231;DHT22;51813;40.666;16.602;2024-02-26T06:04:14;16.00;61.30
65231;DHT22;51813;40.666;16.602;2024-02-26T06:06:40;15.90;61.80
65231;DHT22;51813;40.666;16.602;2024-02-26T06:09:05;15.80;61.50
65231;DHT22;51813;40.666;16.602;2024-02-26T06:11:31;15.90;61.90
65231;DHT22;51813;40.666;16.602;2024-02-26T06:13:57;16.00;61.00
65231;DHT22;51813;40.666;16.602;2024-02-26T06:16:22;16.00;61.40
65231;DHT22;51813;40.666;16.602;2024-02-26T06:18:48;16.00;61.20
65231;DHT22;51813;40.666;16.602;2024-02-26T06:21:14;15.80;61.50
65231;DHT22;51813;40.666;16.602;2024-02-26T06:23:39;15.80;61.20
65231;DHT22;51813;40.666;16.602;2024-02-26T06:26:08;15.80;61.60
65231;DHT22;51813;40.666;16.602;2024-02-26T06:28:34;15.90;61.10
65231;DHT22;51813;40.666;16.602;2024-02-26T06:31:01;16.00;61.30
65231;DHT22;51813;40.666;16.602;2024-02-26T06:33:27;15.90;60.90
65231;DHT22;51813;40.666;16.602;2024-02-26T06:35:52;15.90;61.20
65231;DHT22;51813;40.666;16.602;2024-02-26T06:38:18;15.90;61.70
65231;DHT22;51813;40.666;16.602;2024-02-26T06:40:44;15.90;61.00
65231;DHT22;51813;40.666;16.602;2024-02-26T06:43:10;15.80;60.80
65231;DHT22;51813;40.666;16.602;2024-02-26T06:45:35;15.80;61.50
65231;DHT22;51813;40.666;16.602;2024-02-26T06:48:01;15.70;61.10
65231;DHT22;51813;40.666;16.602;2024-02-26T06:50:28;15.70;61.70
65231;DHT22;51813;40.666;16.602;2024-02-26T06:52:53;15.90;60.90
65231;DHT22;51813;40.666;16.602;2024-02-26T06:55:19;16.00;61.20
65231;DHT22;51813;40.666;16.602;2024-02-26T06:57:45;16.00;60.80
65231;DHT22;51813;40.666;16.602;2024-02-26T07:00:11;16.10;60.50
65231;DHT22;51813;40.666;16.602;2024-02-26T07:02:40;16.10;60.50
65231;DHT22;51813;40.666;16.602;2024-02-26T07:05:06;16.20;60.30
65231;DHT22;51813;40.666;16.602;2024-02-26T07:07:32;16.20;59.90
65231;DHT22;51813;40.666;16.602;2024-02-26T07:09:58;16.10;60.10
65231;DHT22;51813;40.666;16.602;2024-02-26T07:12:23;16.00;60.10
65231;DHT22;51813;40.666;16.602;2024-02-26T07:14:50;15.90;60.50
65231;DHT22;51813;40.666;16.602;2024-02-26T07:17:16;15.90;60.70
65231;DHT22;51813;40.666;16.602;2024-02-26T07:19:42;16.00;60.80
65231;DHT22;51813;40.666;16.602;2024-02-26T07:22:08;15.90;60.60
65231;DHT22;51813;40.666;16.602;2024-02-26T07:24:33;15.90;61.30
65231;DHT22;51813;40.666;16.602;2024-02-26T07:26:59;15.80;60.50
65231;DHT22;51813;40.666;16.602;2024-02-26T07:29:25;15.80;61.20
65231;DHT22;51813;40.666;16.602;2024-02-26T07:31:50;15.80;60.60
65231;DHT22;51813;40.666;16.602;2024-02-26T07:34:16;15.70;61.10
65231;DHT22;51813;40.666;16.602;2024-02-26T07:36:42;15.70;61.30
65231;DHT22;51813;40.666;16.602;2024-02-26T07:39:08;15.80;61.20
65231;DHT22;51813;40.666;16.602;2024-02-26T07:41:33;15.90;60.90
65231;DHT22;51813;40.666;16.602;2024-02-26T07:43:59;16.00;60.40
65231;DHT22;51813;40.666;16.602;2024-02-26T07:46:25;15.90;60.90
65231;DHT22;51813;40.666;16.602;2024-02-26T07:48:51;15.90;61.50
65231;DHT22;51813;40.666;16.602;2024-02-26T07:51:16;15.90;61.60
65231;DHT22;51813;40.666;16.602;2024-02-26T07:53:42;16.00;61.40
65231;DHT22;51813;40.666;16.602;2024-02-26T07:56:09;15.90;61.40
65231;DHT22;51813;40.666;16.602;2024-02-26T07:58:35;16.00;61.40
65231;DHT22;51813;40.666;16.602;2024-02-26T08:01:00;16.00;61.10
65231;DHT22;51813;40.666;16.602;2024-02-26T08:03:26;16.00;60.70
65231;DHT22;51813;40.666;16.602;2024-02-26T08:05:52;15.90;60.90
65231;DHT22;51813;40.666;16.602;2024-02-26T08:08:18;16.00;61.40
65231;DHT22;51813;40.666;16.602;2024-02-26T08:10:43;16.00;61.10
65231;DHT22;51813;40.666;16.602;2024-02-26T08:13:09;16.10;61.20
65231;DHT22;51813;40.666;16.602;2024-02-26T08:15:35;16.00;61.40
65231;DHT22;51813;40.666;16.602;2024-02-26T08:18:03;16.10;61.40
65231;DHT22;51813;40.666;16.602;2024-02-26T08:20:30;16.10;60.70
65231;DHT22;51813;40.666;16.602;2024-02-26T08:22:56;16.20;60.60
65231;DHT22;51813;40.666;16.602;2024-02-26T08:25:22;16.20;60.90
65231;DHT22;51813;40.666;16.602;2024-02-26T08:27:48;16.30;61.30
65231;DHT22;51813;40.666;16.602;2024-02-26T08:30:15;16.30;61.00
65231;DHT22;51813;40.666;16.602;2024-02-26T08:32:43;16.30;60.50
65231;DHT22;51813;40.666;16.602;2024-02-26T08:35:09;16.40;60.30
65231;DHT22;51813;40.666;16.602;2024-02-26T08:37:35;16.40;61.30
65231;DHT22;51813;40.666;16.602;2024-02-26T08:40:01;16.50;60.90
65231;DHT22;51813;40.666;16.602;2024-02-26T08:42:26;16.40;60.50
65231;DHT22;51813;40.666;16.602;2024-02-26T08:44:52;16.40;61.00
65231;DHT22;51813;40.666;16.602;2024-02-26T08:47:20;16.50;60.50
65231;DHT22;51813;40.666;16.602;2024-02-26T08:49:45;16.40;60.90
65231;DHT22;51813;40.666;16.602;2024-02-26T08:52:11;16.40;61.00
65231;DHT22;51813;40.666;16.602;2024-02-26T08:54:37;16.60;60.80
65231;DHT22;51813;40.666;16.602;2024-02-26T08:57:03;16.70;60.60
65231;DHT22;51813;40.666;16.602;2024-02-26T08:59:29;16.70;60.70
65231;DHT22;51813;40.666;16.602;2024-02-26T09:01:55;16.70;60.20
65231;DHT22;51813;40.666;16.602;2024-02-26T09:04:20;16.70;60.10
65231;DHT22;51813;40.666;16.602;2024-02-26T09:06:46;16.70;60.10
65231;DHT22;51813;40.666;16.602;2024-02-26T09:09:12;16.70;59.80
65231;DHT22;51813;40.666;16.602;2024-02-26T09:11:38;16.80;60.20
65231;DHT22;51813;40.666;16.602;2024-02-26T09:14:03;16.80;60.10
65231;DHT22;51813;40.666;16.602;2024-02-26T09:16:30;16.80;60.40
65231;DHT22;51813;40.666;16.602;2024-02-26T09:18:56;16.80;60.30
65231;DHT22;51813;40.666;16.602;2024-02-26T09:21:22;16.80;60.20
65231;DHT22;51813;40.666;16.602;2024-02-26T09:23:52;16.80;60.10
65231;DHT22;51813;40.666;16.602;2024-02-26T09:26:18;16.90;60.10
65231;DHT22;51813;40.666;16.602;2024-02-26T09:28:44;16.80;60.10
65231;DHT22;51813;40.666;16.602;2024-02-26T09:31:10;16.80;60.40
65231;DHT22;51813;40.666;16.602;2024-02-26T09:33:36;16.70;60.20
65231;DHT22;51813;40.666;16.602;2024-02-26T09:36:02;16.70;60.50
65231;DHT22;51813;40.666;16.602;2024-02-26T09:38:28;16.80;60.40
65231;DHT22;51813;40.666;16.602;2024-02-26T09:40:56;16.70;60.50
65231;DHT22;51813;40.666;16.602;2024-02-26T09:43:23;16.70;60.60
65231;DHT22;51813;40.666;16.602;2024-02-26T09:45:53;16.80;60.60
65231;DHT22;51813;40.666;16.602;2024-02-26T09:48:20;16.90;60.30
65231;DHT22;51813;40.666;16.602;2024-02-26T09:50:46;16.80;60.70
65231;DHT22;51813;40.666;16.602;2024-02-26T09:53:12;16.90;60.30
65231;DHT22;51813;40.666;16.602;2024-02-26T09:55:40;17.00;60.20
65231;DHT22;51813;40.666;16.602;2024-02-26T09:58:06;17.30;59.30
65231;DHT22;51813;40.666;16.602;2024-02-26T10:00:37;17.60;58.50
65231;DHT22;51813;40.666;16.602;2024-02-26T10:03:10;17.90;57.90
65231;DHT22;51813;40.666;16.602;2024-02-26T10:05:38;18.00;57.30
65231;DHT22;51813;40.666;16.602;2024-02-26T10:08:06;18.20;57.00
65231;DHT22;51813;40.666;16.602;2024-02-26T10:10:33;18.30;56.80
65231;DHT22;51813;40.666;16.602;2024-02-26T10:13:00;18.40;56.60
65231;DHT22;51813;40.666;16.602;2024-02-26T10:15:26;18.50;56.40
65231;DHT22;51813;40.666;16.602;2024-02-26T10:17:53;18.50;56.20
65231;DHT22;51813;40.666;16.602;2024-02-26T10:20:19;18.60;56.10
65231;DHT22;51813;40.666;16.602;2024-02-26T10:22:47;18.60;56.00
65231;DHT22;51813;40.666;16.602;2024-02-26T10:25:13;18.60;56.00
65231;DHT22;51813;40.666;16.602;2024-02-26T10:27:42;18.60;56.20
65231;DHT22;51813;40.666;16.602;2024-02-26T10:30:21;18.70;56.70
65231;DHT22;51813;40.666;16.602;2024-02-26T10:32:48;18.50;56.20
65231;DHT22;51813;40.666;16.602;2024-02-26T10:35:15;18.60;56.30
65231;DHT22;51813;40.666;16.602;2024-02-26T10:37:42;18.70;56.20
65231;DHT22;51813;40.666;16.602;2024-02-26T10:40:11;18.40;56.10
65231;DHT22;51813;40.666;16.602;2024-02-26T10:42:37;18.10;57.70
65231;DHT22;51813;40.666;16.602;2024-02-26T10:45:08;18.30;57.10
65231;DHT22;51813;40.666;16.602;2024-02-26T10:47:37;18.50;56.90
65231;DHT22;51813;40.666;16.602;2024-02-26T10:50:04;18.60;56.40
65231;DHT22;51813;40.666;16.602;2024-02-26T10:52:35;18.70;56.40
65231;DHT22;51813;40.666;16.602;2024-02-26T10:55:04;18.80;56.10
65231;DHT22;51813;40.666;16.602;2024-02-26T10:57:40;18.80;55.90
65231;DHT22;51813;40.666;16.602;2024-02-26T11:00:06;18.80;55.80
65231;DHT22;51813;40.666;16.602;2024-02-26T11:02:36;18.80;55.80
65231;DHT22;51813;40.666;16.602;2024-02-26T11:05:03;18.70;56.00
65231;DHT22;51813;40.666;16.602;2024-02-26T11:07:32;18.70;55.80
65231;DHT22;51813;40.666;16.602;2024-02-26T11:10:05;18.80;55.60
65231;DHT22;51813;40.666;16.602;2024-02-26T11:12:35;18.90;55.70
65231;DHT22;51813;40.666;16.602;2024-02-26T11:15:04;18.80;55.40
65231;DHT22;51813;40.666;16.602;2024-02-26T11:17:30;18.80;55.20
65231;DHT22;51813;40.666;16.602;2024-02-26T11:19:58;18.90;55.10
65231;DHT22;51813;40.666;16.602;2024-02-26T11:22:27;18.80;55.20
65231;DHT22;51813;40.666;16.602;2024-02-26T11:24:56;18.80;55.10
65231;DHT22;51813;40.666;16.602;2024-02-26T11:27:39;18.90;54.90
65231;DHT22;51813;40.666;16.602;2024-02-26T11:30:10;19.00;54.90
65231;DHT22;51813;40.666;16.602;2024-02-26T11:32:36;19.00;54.70
65231;DHT22;51813;40.666;16.602;2024-02-26T11:35:04;18.90;55.00
65231;DHT22;51813;40.666;16.602;2024-02-26T11:37:31;18.90;54.90
65231;DHT22;51813;40.666;16.602;2024-02-26T11:39:59;18.90;54.90
65231;DHT22;51813;40.666;16.602;2024-02-26T11:42:26;18.90;54.80
65231;DHT22;51813;40.666;16.602;2024-02-26T11:44:52;18.90;55.00
65231;DHT22;51813;40.666;16.602;2024-02-26T11:47:22;19.00;54.90
65231;DHT22;51813;40.666;16.602;2024-02-26T11:49:48;19.00;54.90
65231;DHT22;51813;40.666;16.602;2024-02-26T11:52:15;19.10;54.90
65231;DHT22;51813;40.666;16.602;2024-02-26T11:54:51;19.10;54.90
65231;DHT22;51813;40.666;16.602;2024-02-26T11:57:30;19.10;54.80
65231;DHT22;51813;40.666;16.602;2024-02-26T12:00:16;19.10;54.70
65231;DHT22;51813;40.666;16.602;2024-02-26T12:02:49;18.90;55.20
65231;DHT22;51813;40.666;16.602;2024-02-26T12:05:18;19.00;55.30
65231;DHT22;51813;40.666;16.602;2024-02-26T12:08:02;19.10;55.00
65231;DHT22;51813;40.666;16.602;2024-02-26T12:10:41;19.20;54.80
65231;DHT22;51813;40.666;16.602;2024-02-26T12:13:16;19.30;54.40
65231;DHT22;51813;40.666;16.602;2024-02-26T12:15:55;19.30;54.30
65231;DHT22;51813;40.666;16.602;2024-02-26T12:18:22;19.40;54.20
65231;DHT22;51813;40.666;16.602;2024-02-26T12:21:01;19.50;54.00
65231;DHT22;51813;40.666;16.602;2024-02-26T12:23:27;19.60;53.80
65231;DHT22;51813;40.666;16.602;2024-02-26T12:25:58;19.60;53.80
65231;DHT22;51813;40.666;16.602;2024-02-26T12:28:30;19.60;53.70
65231;DHT22;51813;40.666;16.602;2024-02-26T12:30:56;19.70;53.50
65231;DHT22;51813;40.666;16.602;2024-02-26T12:33:25;19.70;53.40
65231;DHT22;51813;40.666;16.602;2024-02-26T12:35:52;19.70;53.30
65231;DHT22;51813;40.666;16.602;2024-02-26T12:38:18;19.80;53.30
65231;DHT22;51813;40.666;16.602;2024-02-26T12:40:44;19.90;53.00
65231;DHT22;51813;40.666;16.602;2024-02-26T12:43:10;19.90;52.80
65231;DHT22;51813;40.666;16.602;2024-02-26T12:45:41;19.90;52.90
65231;DHT22;51813;40.666;16.602;2024-02-26T12:48:07;19.90;52.80
65231;DHT22;51813;40.666;16.602;2024-02-26T12:50:33;19.80;53.10
65231;DHT22;51813;40.666;16.602;2024-02-26T12:53:00;19.80;53.10
65231;DHT22;51813;40.666;16.602;2024-02-26T12:55:26;19.90;53.00
65231;DHT22;51813;40.666;16.602;2024-02-26T12:57:52;19.90;52.90
65231;DHT22;51813;40.666;16.602;2024-02-26T13:00:21;19.90;53.00
65231;DHT22;51813;40.666;16.602;2024-02-26T13:02:49;20.00;52.90
65231;DHT22;51813;40.666;16.602;2024-02-26T13:05:15;20.00;52.70
65231;DHT22;51813;40.666;16.602;2024-02-26T13:07:42;20.10;52.70
65231;DHT22;51813;40.666;16.602;2024-02-26T13:10:08;20.10;52.70
65231;DHT22;51813;40.666;16.602;2024-02-26T13:12:46;20.20;52.50
65231;DHT22;51813;40.666;16.602;2024-02-26T13:15:20;20.20;52.60
65231;DHT22;51813;40.666;16.602;2024-02-26T13:17:46;20.20;52.60
65231;DHT22;51813;40.666;16.602;2024-02-26T13:20:13;20.20;52.50
65231;DHT22;51813;40.666;16.602;2024-02-26T13:22:40;20.20;52.30
65231;DHT22;51813;40.666;16.602;2024-02-26T13:25:06;20.20;52.10
65231;DHT22;51813;40.666;16.602;2024-02-26T13:27:33;20.20;52.30
65231;DHT22;51813;40.666;16.602;2024-02-26T13:30:12;20.30;52.00
65231;DHT22;51813;40.666;16.602;2024-02-26T13:32:39;20.20;52.00
65231;DHT22;51813;40.666;16.602;2024-02-26T13:35:09;20.30;51.90
65231;DHT22;51813;40.666;16.602;2024-02-26T13:37:36;20.40;51.80
65231;DHT22;51813;40.666;16.602;2024-02-26T13:40:08;20.40;51.70
65231;DHT22;51813;40.666;16.602;2024-02-26T13:42:35;20.40;51.70
65231;DHT22;51813;40.666;16.602;2024-02-26T13:45:01;20.40;51.60
65231;DHT22;51813;40.666;16.602;2024-02-26T13:47:27;20.40;51.70
65231;DHT22;51813;40.666;16.602;2024-02-26T13:49:52;20.40;51.70
65231;DHT22;51813;40.666;16.602;2024-02-26T13:52:18;20.50;51.50
65231;DHT22;51813;40.666;16.602;2024-02-26T13:54:46;20.50;51.50
65231;DHT22;51813;40.666;16.602;2024-02-26T13:57:11;20.60;51.40
65231;DHT22;51813;40.666;16.602;2024-02-26T13:59:37;20.60;51.30
65231;DHT22;51813;40.666;16.602;2024-02-26T14:02:07;20.60;51.30
65231;DHT22;51813;40.666;16.602;2024-02-26T14:04:32;20.70;51.40
65231;DHT22;51813;40.666;16.602;2024-02-26T14:06:58;20.70;52.10
65231;DHT22;51813;40.666;16.602;2024-02-26T14:09:24;20.70;51.30
65231;DHT22;51813;40.666;16.602;2024-02-26T14:11:49;20.70;51.70
65231;DHT22;51813;40.666;16.602;2024-02-26T14:14:15;20.70;51.70
65231;DHT22;51813;40.666;16.602;2024-02-26T14:16:41;20.70;51.50
65231;DHT22;51813;40.666;16.602;2024-02-26T14:19:06;20.70;51.50
65231;DHT22;51813;40.666;16.602;2024-02-26T14:21:32;20.70;52.00
65231;DHT22;51813;40.666;16.602;2024-02-26T14:23:57;20.80;51.30
65231;DHT22;51813;40.666;16.602;2024-02-26T14:26:23;20.80;51.20
65231;DHT22;51813;40.666;16.602;2024-02-26T14:28:49;20.80;51.30
65231;DHT22;51813;40.666;16.602;2024-02-26T14:31:18;20.90;51.20
65231;DHT22;51813;40.666;16.602;2024-02-26T14:33:43;20.90;51.30
65231;DHT22;51813;40.666;16.602;2024-02-26T14:36:09;20.80;51.60
65231;DHT22;51813;40.666;16.602;2024-02-26T14:38:35;20.80;51.40
65231;DHT22;51813;40.666;16.602;2024-02-26T14:41:01;20.70;51.80
65231;DHT22;51813;40.666;16.602;2024-02-26T14:43:28;20.80;51.70
65231;DHT22;51813;40.666;16.602;2024-02-26T14:45:53;20.80;51.90
65231;DHT22;51813;40.666;16.602;2024-02-26T14:48:19;20.80;51.60
65231;DHT22;51813;40.666;16.602;2024-02-26T14:50:45;20.90;51.50
65231;DHT22;51813;40.666;16.602;2024-02-26T14:53:10;20.90;51.60
65231;DHT22;51813;40.666;16.602;2024-02-26T14:55:36;20.80;51.80
65231;DHT22;51813;40.666;16.602;2024-02-26T14:58:01;20.90;51.70
65231;DHT22;51813;40.666;16.602;2024-02-26T15:00:27;20.80;51.70
65231;DHT22;51813;40.666;16.602;2024-02-26T15:02:53;20.80;51.80
65231;DHT22;51813;40.666;16.602;2024-02-26T15:05:20;20.80;51.70
65231;DHT22;51813;40.666;16.602;2024-02-26T15:07:46;20.80;51.70
65231;DHT22;51813;40.666;16.602;2024-02-26T15:10:11;20.80;51.70
65231;DHT22;51813;40.666;16.602;2024-02-26T15:12:38;20.80;51.80